sensor_id;sensor_type;location;lat;lon;timestamp;pressure;altitude;pressure_sealevel;temperature;humidity
56671;BME280;42545;50.054;8.306;2023-06-14T00:01:44;99592.56;;;18.73;41.66
56671;BME280;42545;50.054;8.306;2023-06-14T00:04:10;99587.28;;;18.70;41.78
56671;BME280;42545;50.054;8.306;2023-06-14T00:06:38;99597.13;;;18.68;41.89
56671;BME280;42545;50.054;8.306;2023-06-14T00:09:04;99593.69;;;18.63;42.01
56671;BME280;42545;50.054;8.306;2023-06-14T00:11:33;99585.91;;;18.54;42.13
56671;BME280;42545;50.054;8.306;2023-06-14T00:14:02;99588.75;;;18.46;42.62
56671;BME280;42545;50.054;8.306;2023-06-14T00:16:29;99597.84;;;18.37;42.84
56671;BME280;42545;50.054;8.306;2023-06-14T00:18:58;99592.63;;;18.33;42.97
56671;BME280;42545;50.054;8.306;2023-06-14T00:21:24;99590.00;;;18.31;42.81
56671;BME280;42545;50.054;8.306;2023-06-14T00:23:53;99585.56;;;18.30;42.72
56671;BME280;42545;50.054;8.306;2023-06-14T00:26:20;99594.50;;;18.29;42.70
56671;BME280;42545;50.054;8.306;2023-06-14T00:28:47;99595.38;;;18.30;42.58
56671;BME280;42545;50.054;8.306;2023-06-14T00:31:15;99594.44;;;18.31;42.66
56671;BME280;42545;50.054;8.306;2023-06-14T00:33:41;99595.44;;;18.25;43.04
56671;BME280;42545;50.054;8.306;2023-06-14T00:36:08;99588.47;;;18.19;43.22
56671;BME280;42545;50.054;8.306;2023-06-14T00:38:34;99597.47;;;18.14;43.08
56671;BME280;42545;50.054;8.306;2023-06-14T00:41:03;99590.31;;;18.16;42.48
56671;BME280;42545;50.054;8.306;2023-06-14T00:43:30;99601.75;;;18.22;42.24
56671;BME280;42545;50.054;8.306;2023-06-14T00:45:56;99599.84;;;18.29;41.82
56671;BME280;42545;50.054;8.306;2023-06-14T00:48:25;99597.00;;;18.35;41.48
56671;BME280;42545;50.054;8.306;2023-06-14T00:50:52;99595.13;;;18.40;41.38
56671;BME280;42545;50.054;8.306;2023-06-14T00:53:19;99594.13;;;18.44;41.10
56671;BME280;42545;50.054;8.306;2023-06-14T00:55:48;99595.94;;;18.44;41.11
56671;BME280;42545;50.054;8.306;2023-06-14T00:58:14;99598.59;;;18.44;41.41
56671;BME280;42545;50.054;8.306;2023-06-14T01:00:41;99592.50;;;18.37;41.44
56671;BME280;42545;50.054;8.306;2023-06-14T01:03:09;99596.06;;;18.38;41.40
56671;BME280;42545;50.054;8.306;2023-06-14T01:05:40;99605.03;;;18.35;41.44
56671;BME280;42545;50.054;8.306;2023-06-14T01:08:17;99604.19;;;18.33;41.83
56671;BME280;42545;50.054;8.306;2023-06-14T01:10:53;99602.50;;;18.29;41.78
56671;BME280;42545;50.054;8.306;2023-06-14T01:13:27;99611.44;;;18.27;41.73
56671;BME280;42545;50.054;8.306;2023-06-14T01:15:56;99602.63;;;18.23;41.62
56671;BME280;42545;50.054;8.306;2023-06-14T01:18:23;99604.41;;;18.24;41.72
56671;BME280;42545;50.054;8.306;2023-06-14T01:20:52;99609.72;;;18.24;41.74
56671;BME280;42545;50.054;8.306;2023-06-14T01:23:23;99610.59;;;18.24;41.72
56671;BME280;42545;50.054;8.306;2023-06-14T01:25:50;99604.41;;;18.24;41.43
56671;BME280;42545;50.054;8.306;2023-06-14T01:28:19;99607.97;;;18.23;41.77
56671;BME280;42545;50.054;8.306;2023-06-14T01:30:47;99608.91;;;18.22;41.63
56671;BME280;42545;50.054;8.306;2023-06-14T01:33:19;99612.47;;;18.21;41.63
56671;BME280;42545;50.054;8.306;2023-06-14T01:35:48;99600.94;;;18.19;41.69
56671;BME280;42545;50.054;8.306;2023-06-14T01:38:17;99614.31;;;18.17;41.59
56671;BME280;42545;50.054;8.306;2023-06-14T01:40:48;99610.81;;;18.15;41.51
56671;BME280;42545;50.054;8.306;2023-06-14T01:43:16;99607.28;;;18.15;41.67
56671;BME280;42545;50.054;8.306;2023-06-14T01:45:44;99607.25;;;18.16;41.66
56671;BME280;42545;50.054;8.306;2023-06-14T01:48:12;99608.13;;;18.15;41.40
56671;BME280;42545;50.054;8.306;2023-06-14T01:50:40;99610.81;;;18.15;41.50
56671;BME280;42545;50.054;8.306;2023-06-14T01:53:08;99599.28;;;18.13;41.57
56671;BME280;42545;50.054;8.306;2023-06-14T01:55:35;99603.69;;;18.14;41.47
56671;BME280;42545;50.054;8.306;2023-06-14T01:58:05;99606.38;;;18.14;41.41
56671;BME280;42545;50.054;8.306;2023-06-14T02:00:31;99614.47;;;18.11;41.58
56671;BME280;42545;50.054;8.306;2023-06-14T02:02:58;99606.53;;;18.06;41.61
56671;BME280;42545;50.054;8.306;2023-06-14T02:05:25;99613.75;;;18.01;41.60
56671;BME280;42545;50.054;8.306;2023-06-14T02:07:51;99609.41;;;17.97;42.01
56671;BME280;42545;50.054;8.306;2023-06-14T02:10:20;99605.91;;;17.94;41.79
56671;BME280;42545;50.054;8.306;2023-06-14T02:12:46;99604.22;;;17.91;41.88
56671;BME280;42545;50.054;8.306;2023-06-14T02:15:14;99611.38;;;17.89;41.99
56671;BME280;42545;50.054;8.306;2023-06-14T02:17:44;99606.94;;;17.88;42.09
56671;BME280;42545;50.054;8.306;2023-06-14T02:20:12;99614.06;;;17.88;42.07
56671;BME280;42545;50.054;8.306;2023-06-14T02:22:39;99613.19;;;17.87;42.20
56671;BME280;42545;50.054;8.306;2023-06-14T02:25:09;99615.88;;;17.84;42.42
56671;BME280;42545;50.054;8.306;2023-06-14T02:27:35;99621.22;;;17.84;42.48
56671;BME280;42545;50.054;8.306;2023-06-14T02:30:02;99615.03;;;17.82;42.42
56671;BME280;42545;50.054;8.306;2023-06-14T02:32:31;99615.94;;;17.81;42.42
56671;BME280;42545;50.054;8.306;2023-06-14T02:34:59;99615.09;;;17.79;42.56
56671;BME280;42545;50.054;8.306;2023-06-14T02:37:26;99624.06;;;17.76;42.46
56671;BME280;42545;50.054;8.306;2023-06-14T02:39:53;99621.50;;;17.68;42.72
56671;BME280;42545;50.054;8.306;2023-06-14T02:42:23;99622.50;;;17.64;42.80
56671;BME280;42545;50.054;8.306;2023-06-14T02:44:49;99619.94;;;17.58;43.08
56671;BME280;42545;50.054;8.306;2023-06-14T02:47:17;99620.88;;;17.56;43.30
56671;BME280;42545;50.054;8.306;2023-06-14T02:49:45;99620.03;;;17.54;43.36
56671;BME280;42545;50.054;8.306;2023-06-14T02:52:13;99613.03;;;17.46;43.89
56671;BME280;42545;50.054;8.306;2023-06-14T02:54:39;99616.63;;;17.47;44.40
56671;BME280;42545;50.054;8.306;2023-06-14T02:57:06;99619.41;;;17.39;44.66
56671;BME280;42545;50.054;8.306;2023-06-14T02:59:34;99617.81;;;17.31;44.99
56671;BME280;42545;50.054;8.306;2023-06-14T03:02:00;99621.50;;;17.23;45.13
56671;BME280;42545;50.054;8.306;2023-06-14T03:04:28;99619.84;;;17.16;45.56
56671;BME280;42545;50.054;8.306;2023-06-14T03:06:59;99620.81;;;17.10;45.47
56671;BME280;42545;50.054;8.306;2023-06-14T03:09:28;99623.53;;;17.07;45.57
56671;BME280;42545;50.054;8.306;2023-06-14T03:11:54;99623.59;;;17.03;45.71
56671;BME280;42545;50.054;8.306;2023-06-14T03:14:21;99627.22;;;16.99;46.25
56671;BME280;42545;50.054;8.306;2023-06-14T03:16:47;99619.50;;;16.83;46.53
56671;BME280;42545;50.054;8.306;2023-06-14T03:19:15;99628.47;;;16.76;46.78
56671;BME280;42545;50.054;8.306;2023-06-14T03:21:42;99635.75;;;16.63;47.10
56671;BME280;42545;50.054;8.306;2023-06-14T03:24:11;99643.75;;;16.62;47.04
56671;BME280;42545;50.054;8.306;2023-06-14T03:26:37;99644.72;;;16.59;47.29
56671;BME280;42545;50.054;8.306;2023-06-14T03:29:04;99644.72;;;16.58;47.19
56671;BME280;42545;50.054;8.306;2023-06-14T03:31:30;99642.03;;;16.59;47.11
56671;BME280;42545;50.054;8.306;2023-06-14T03:33:58;99639.31;;;16.61;47.20
56671;BME280;42545;50.054;8.306;2023-06-14T03:36:25;99642.91;;;16.61;47.00
56671;BME280;42545;50.054;8.306;2023-06-14T03:38:53;99646.41;;;16.65;46.90
56671;BME280;42545;50.054;8.306;2023-06-14T03:41:21;99649.91;;;16.67;46.87
56671;BME280;42545;50.054;8.306;2023-06-14T03:43:48;99652.56;;;16.68;46.95
56671;BME280;42545;50.054;8.306;2023-06-14T03:46:14;99662.31;;;16.66;47.06
56671;BME280;42545;50.054;8.306;2023-06-14T03:48:41;99656.16;;;16.64;47.24
56671;BME280;42545;50.054;8.306;2023-06-14T03:51:07;99658.94;;;16.55;47.42
56671;BME280;42545;50.054;8.306;2023-06-14T03:53:34;99666.06;;;16.55;47.45
56671;BME280;42545;50.054;8.306;2023-06-14T03:56:01;99670.56;;;16.51;47.70
56671;BME280;42545;50.054;8.306;2023-06-14T03:58:29;99681.25;;;16.48;47.93
56671;BME280;42545;50.054;8.306;2023-06-14T04:00:56;99676.84;;;16.45;48.08
56671;BME280;42545;50.054;8.306;2023-06-14T04:03:22;99678.66;;;16.43;48.22
56671;BME280;42545;50.054;8.306;2023-06-14T04:05:54;99686.63;;;16.45;48.20
56671;BME280;42545;50.054;8.306;2023-06-14T04:08:24;99680.41;;;16.44;48.16
56671;BME280;42545;50.054;8.306;2023-06-14T04:10:51;99684.81;;;16.47;48.19
56671;BME280;42545;50.054;8.306;2023-06-14T04:13:18;99686.56;;;16.49;48.25
56671;BME280;42545;50.054;8.306;2023-06-14T04:15:46;99690.06;;;16.51;48.28
56671;BME280;42545;50.054;8.306;2023-06-14T04:18:13;99680.34;;;16.50;48.43
56671;BME280;42545;50.054;8.306;2023-06-14T04:20:39;99685.66;;;16.50;48.63
56671;BME280;42545;50.054;8.306;2023-06-14T04:23:12;99692.78;;;16.48;48.39
56671;BME280;42545;50.054;8.306;2023-06-14T04:25:39;99692.81;;;16.45;48.89
56671;BME280;42545;50.054;8.306;2023-06-14T04:28:10;99685.78;;;16.41;49.00
56671;BME280;42545;50.054;8.306;2023-06-14T04:30:39;99698.16;;;16.45;49.24
56671;BME280;42545;50.054;8.306;2023-06-14T04:33:07;99696.38;;;16.46;49.28
56671;BME280;42545;50.054;8.306;2023-06-14T04:35:35;99698.16;;;16.44;49.45
56671;BME280;42545;50.054;8.306;2023-06-14T04:38:02;99693.72;;;16.44;49.82
56671;BME280;42545;50.054;8.306;2023-06-14T04:40:30;99687.53;;;16.42;49.95
56671;BME280;42545;50.054;8.306;2023-06-14T04:42:58;99691.97;;;16.42;50.15
56671;BME280;42545;50.054;8.306;2023-06-14T04:45:26;99695.59;;;16.39;50.22
56671;BME280;42545;50.054;8.306;2023-06-14T04:47:58;99703.53;;;16.41;50.50
56671;BME280;42545;50.054;8.306;2023-06-14T04:50:27;99699.97;;;16.42;50.27
56671;BME280;42545;50.054;8.306;2023-06-14T04:52:54;99699.03;;;16.46;50.14
56671;BME280;42545;50.054;8.306;2023-06-14T04:55:22;99705.22;;;16.48;49.91
56671;BME280;42545;50.054;8.306;2023-06-14T04:57:49;99709.50;;;16.61;50.00
56671;BME280;42545;50.054;8.306;2023-06-14T05:00:18;99711.06;;;16.75;49.38
56671;BME280;42545;50.054;8.306;2023-06-14T05:02:46;99701.19;;;16.83;49.28
56671;BME280;42545;50.054;8.306;2023-06-14T05:05:14;99699.28;;;16.94;49.06
56671;BME280;42545;50.054;8.306;2023-06-14T05:07:42;99707.16;;;17.00;49.08
56671;BME280;42545;50.054;8.306;2023-06-14T05:10:10;99710.66;;;17.04;49.21
56671;BME280;42545;50.054;8.306;2023-06-14T05:12:37;99715.06;;;17.06;49.34
56671;BME280;42545;50.054;8.306;2023-06-14T05:15:04;99717.69;;;17.09;49.37
56671;BME280;42545;50.054;8.306;2023-06-14T05:17:31;99717.66;;;17.11;49.46
56671;BME280;42545;50.054;8.306;2023-06-14T05:19:58;99718.41;;;17.19;49.36
56671;BME280;42545;50.054;8.306;2023-06-14T05:22:24;99723.66;;;17.25;49.10
56671;BME280;42545;50.054;8.306;2023-06-14T05:24:55;99723.53;;;17.32;49.05
56671;BME280;42545;50.054;8.306;2023-06-14T05:27:21;99715.38;;;17.41;48.75
56671;BME280;42545;50.054;8.306;2023-06-14T05:29:50;99713.47;;;17.49;48.47
56671;BME280;42545;50.054;8.306;2023-06-14T05:32:16;99704.53;;;17.52;48.42
56671;BME280;42545;50.054;8.306;2023-06-14T05:34:43;99717.63;;;17.65;48.53
56671;BME280;42545;50.054;8.306;2023-06-14T05:37:10;99721.94;;;17.74;48.32
56671;BME280;42545;50.054;8.306;2023-06-14T05:39:39;99725.38;;;17.79;47.74
56671;BME280;42545;50.054;8.306;2023-06-14T05:42:07;99726.19;;;17.86;47.19
56671;BME280;42545;50.054;8.306;2023-06-14T05:44:34;99721.56;;;17.94;47.17
56671;BME280;42545;50.054;8.306;2023-06-14T05:47:01;99732.13;;;18.02;47.59
56671;BME280;42545;50.054;8.306;2023-06-14T05:49:27;99735.75;;;17.98;47.49
56671;BME280;42545;50.054;8.306;2023-06-14T05:51:54;99735.22;;;17.76;48.67
56671;BME280;42545;50.054;8.306;2023-06-14T05:54:20;99730.56;;;17.36;49.79
56671;BME280;42545;50.054;8.306;2023-06-14T05:56:47;99740.72;;;17.12;50.19
56671;BME280;42545;50.054;8.306;2023-06-14T05:59:15;99750.03;;;16.85;51.86
56671;BME280;42545;50.054;8.306;2023-06-14T06:01:42;99741.72;;;16.40;53.37
56671;BME280;42545;50.054;8.306;2023-06-14T06:04:09;99758.78;;;16.23;54.29
56671;BME280;42545;50.054;8.306;2023-06-14T06:06:36;99762.41;;;16.16;55.15
56671;BME280;42545;50.054;8.306;2023-06-14T06:09:02;99764.13;;;16.22;55.33
56671;BME280;42545;50.054;8.306;2023-06-14T06:11:30;99767.47;;;16.39;55.14
56671;BME280;42545;50.054;8.306;2023-06-14T06:13:57;99770.78;;;16.57;54.65
56671;BME280;42545;50.054;8.306;2023-06-14T06:16:25;99778.53;;;16.75;53.88
56671;BME280;42545;50.054;8.306;2023-06-14T06:18:52;99772.13;;;16.93;53.31
56671;BME280;42545;50.054;8.306;2023-06-14T06:21:19;99778.13;;;17.09;53.07
56671;BME280;42545;50.054;8.306;2023-06-14T06:23:46;99770.81;;;17.23;52.33
56671;BME280;42545;50.054;8.306;2023-06-14T06:26:13;99776.81;;;17.36;51.64
56671;BME280;42545;50.054;8.306;2023-06-14T06:28:40;99774.13;;;17.38;51.17
56671;BME280;42545;50.054;8.306;2023-06-14T06:31:07;99787.25;;;17.50;50.58
56671;BME280;42545;50.054;8.306;2023-06-14T06:33:37;99790.72;;;17.55;50.50
56671;BME280;42545;50.054;8.306;2023-06-14T06:36:05;99791.50;;;17.63;49.97
56671;BME280;42545;50.054;8.306;2023-06-14T06:38:33;99794.84;;;17.75;49.63
56671;BME280;42545;50.054;8.306;2023-06-14T06:41:01;99789.38;;;17.82;49.50
56671;BME280;42545;50.054;8.306;2023-06-14T06:43:29;99799.03;;;17.93;49.13
56671;BME280;42545;50.054;8.306;2023-06-14T06:45:56;99802.53;;;17.96;48.95
56671;BME280;42545;50.054;8.306;2023-06-14T06:48:22;99804.22;;;18.02;48.54
56671;BME280;42545;50.054;8.306;2023-06-14T06:50:51;99801.38;;;18.10;48.75
56671;BME280;42545;50.054;8.306;2023-06-14T06:53:17;99803.88;;;18.19;48.66
56671;BME280;42545;50.054;8.306;2023-06-14T06:55:45;99803.75;;;18.25;48.69
56671;BME280;42545;50.054;8.306;2023-06-14T06:58:12;99804.53;;;18.32;48.39
56671;BME280;42545;50.054;8.306;2023-06-14T07:00:39;99804.41;;;18.38;48.23
56671;BME280;42545;50.054;8.306;2023-06-14T07:03:06;99815.88;;;18.43;47.77
56671;BME280;42545;50.054;8.306;2023-06-14T07:05:33;99807.78;;;18.48;47.47
56671;BME280;42545;50.054;8.306;2023-06-14T07:08:01;99810.38;;;18.51;47.49
56671;BME280;42545;50.054;8.306;2023-06-14T07:10:29;99813.63;;;18.67;48.17
56671;BME280;42545;50.054;8.306;2023-06-14T07:12:56;99818.72;;;18.79;47.83
56671;BME280;42545;50.054;8.306;2023-06-14T07:15:22;99818.44;;;18.93;47.21
56671;BME280;42545;50.054;8.306;2023-06-14T07:17:50;99824.56;;;18.99;47.06
56671;BME280;42545;50.054;8.306;2023-06-14T07:20:18;99817.19;;;19.09;47.03
56671;BME280;42545;50.054;8.306;2023-06-14T07:22:46;99820.66;;;19.14;46.66
56671;BME280;42545;50.054;8.306;2023-06-14T07:25:14;99814.38;;;19.17;46.68
56671;BME280;42545;50.054;8.306;2023-06-14T07:27:41;99825.75;;;19.25;46.60
56671;BME280;42545;50.054;8.306;2023-06-14T07:30:08;99824.66;;;19.34;46.75
56671;BME280;42545;50.054;8.306;2023-06-14T07:32:35;99820.91;;;19.43;46.10
56671;BME280;42545;50.054;8.306;2023-06-14T07:35:03;99823.47;;;19.47;46.17
56671;BME280;42545;50.054;8.306;2023-06-14T07:37:30;99819.69;;;19.56;45.96
56671;BME280;42545;50.054;8.306;2023-06-14T07:39:57;99828.28;;;19.69;46.06
56671;BME280;42545;50.054;8.306;2023-06-14T07:42:25;99820.19;;;19.73;44.67
56671;BME280;42545;50.054;8.306;2023-06-14T07:44:52;99820.19;;;19.72;44.52
56671;BME280;42545;50.054;8.306;2023-06-14T07:47:19;99824.56;;;19.77;44.90
56671;BME280;42545;50.054;8.306;2023-06-14T07:49:47;99819.88;;;19.86;44.75
56671;BME280;42545;50.054;8.306;2023-06-14T07:52:14;99825.91;;;19.94;44.45
56671;BME280;42545;50.054;8.306;2023-06-14T07:54:41;99801.03;;;19.90;44.59
56671;BME280;42545;50.054;8.306;2023-06-14T07:57:07;99822.78;;;20.11;44.56
56671;BME280;42545;50.054;8.306;2023-06-14T07:59:35;99824.34;;;20.20;43.90
56671;BME280;42545;50.054;8.306;2023-06-14T08:02:02;99812.88;;;20.14;43.74
56671;BME280;42545;50.054;8.306;2023-06-14T08:04:29;99823.53;;;20.17;44.00
56671;BME280;42545;50.054;8.306;2023-06-14T08:06:56;99818.16;;;20.17;44.25
56671;BME280;42545;50.054;8.306;2023-06-14T08:09:22;99829.47;;;20.29;44.37
56671;BME280;42545;50.054;8.306;2023-06-14T08:11:50;99823.13;;;20.31;44.24
56671;BME280;42545;50.054;8.306;2023-06-14T08:14:17;99829.13;;;20.41;44.52
56671;BME280;42545;50.054;8.306;2023-06-14T08:16:45;99833.41;;;20.48;43.96
56671;BME280;42545;50.054;8.306;2023-06-14T08:19:12;99820.03;;;20.47;43.87
56671;BME280;42545;50.054;8.306;2023-06-14T08:21:39;99820.00;;;20.48;44.05
56671;BME280;42545;50.054;8.306;2023-06-14T08:24:06;99820.75;;;20.53;43.95
56671;BME280;42545;50.054;8.306;2023-06-14T08:26:32;99823.28;;;20.58;44.05
56671;BME280;42545;50.054;8.306;2023-06-14T08:28:59;99824.94;;;20.64;43.91
56671;BME280;42545;50.054;8.306;2023-06-14T08:31:26;99823.84;;;20.71;44.28
56671;BME280;42545;50.054;8.306;2023-06-14T08:33:55;99821.06;;;20.76;44.13
56671;BME280;42545;50.054;8.306;2023-06-14T08:36:21;99826.22;;;20.82;43.80
56671;BME280;42545;50.054;8.306;2023-06-14T08:38:48;99819.09;;;20.81;43.64
56671;BME280;42545;50.054;8.306;2023-06-14T08:41:21;99818.06;;;20.86;43.18
56671;BME280;42545;50.054;8.306;2023-06-14T08:43:50;99819.59;;;20.93;43.08
56671;BME280;42545;50.054;8.306;2023-06-14T08:46:18;99818.59;;;20.98;42.45
56671;BME280;42545;50.054;8.306;2023-06-14T08:48:48;99813.03;;;21.04;42.44
56671;BME280;42545;50.054;8.306;2023-06-14T08:51:19;99827.03;;;21.13;42.43
56671;BME280;42545;50.054;8.306;2023-06-14T08:53:52;99815.19;;;21.21;42.82
56671;BME280;42545;50.054;8.306;2023-06-14T08:56:23;99826.50;;;21.32;42.44
56671;BME280;42545;50.054;8.306;2023-06-14T08:58:53;99823.66;;;21.37;41.91
56671;BME280;42545;50.054;8.306;2023-06-14T09:01:20;99828.81;;;21.43;41.87
56671;BME280;42545;50.054;8.306;2023-06-14T09:03:50;99824.22;;;21.48;42.06
56671;BME280;42545;50.054;8.306;2023-06-14T09:06:17;99816.91;;;21.53;42.09
56671;BME280;42545;50.054;8.306;2023-06-14T09:08:46;99817.00;;;21.50;41.74
56671;BME280;42545;50.054;8.306;2023-06-14T09:11:14;99822.47;;;21.47;41.76
56671;BME280;42545;50.054;8.306;2023-06-14T09:13:44;99820.56;;;21.50;42.38
56671;BME280;42545;50.054;8.306;2023-06-14T09:16:11;99823.78;;;21.62;42.52
56671;BME280;42545;50.054;8.306;2023-06-14T09:18:40;99823.44;;;21.73;42.05
56671;BME280;42545;50.054;8.306;2023-06-14T09:21:09;99822.34;;;21.78;42.38
56671;BME280;42545;50.054;8.306;2023-06-14T09:23:37;99828.50;;;21.82;40.78
56671;BME280;42545;50.054;8.306;2023-06-14T09:26:10;99829.28;;;21.85;41.10
56671;BME280;42545;50.054;8.306;2023-06-14T09:28:41;99835.38;;;21.91;40.33
56671;BME280;42545;50.054;8.306;2023-06-14T09:31:09;99833.47;;;21.94;40.33
56671;BME280;42545;50.054;8.306;2023-06-14T09:33:36;99832.78;;;21.87;40.44
56671;BME280;42545;50.054;8.306;2023-06-14T09:36:03;99842.47;;;21.92;40.15
56671;BME280;42545;50.054;8.306;2023-06-14T09:38:32;99846.94;;;21.93;40.35
56671;BME280;42545;50.054;8.306;2023-06-14T09:41:03;99847.94;;;21.88;40.20
56671;BME280;42545;50.054;8.306;2023-06-14T09:43:31;99847.13;;;21.86;39.55
56671;BME280;42545;50.054;8.306;2023-06-14T09:46:03;99848.97;;;21.84;40.20
56671;BME280;42545;50.054;8.306;2023-06-14T09:48:32;99847.38;;;21.79;39.72
56671;BME280;42545;50.054;8.306;2023-06-14T09:50:59;99847.28;;;21.82;40.12
56671;BME280;42545;50.054;8.306;2023-06-14T09:53:29;99844.66;;;21.80;40.49
56671;BME280;42545;50.054;8.306;2023-06-14T09:55:57;99848.91;;;21.87;39.96
56671;BME280;42545;50.054;8.306;2023-06-14T09:58:26;99853.28;;;21.90;39.82
56671;BME280;42545;50.054;8.306;2023-06-14T10:00:56;99852.97;;;21.99;39.83
56671;BME280;42545;50.054;8.306;2023-06-14T10:03:26;99862.63;;;22.05;39.34
56671;BME280;42545;50.054;8.306;2023-06-14T10:05:55;99856.00;;;22.15;39.19
56671;BME280;42545;50.054;8.306;2023-06-14T10:08:30;99850.63;;;22.15;38.31
56671;BME280;42545;50.054;8.306;2023-06-14T10:10:58;99854.31;;;22.13;38.35
56671;BME280;42545;50.054;8.306;2023-06-14T10:13:26;99836.53;;;22.08;37.69
56671;BME280;42545;50.054;8.306;2023-06-14T10:16:03;99849.09;;;22.08;37.75
56671;BME280;42545;50.054;8.306;2023-06-14T10:18:40;99853.69;;;22.04;37.42
56671;BME280;42545;50.054;8.306;2023-06-14T10:21:15;99854.72;;;22.00;37.56
56671;BME280;42545;50.054;8.306;2023-06-14T10:23:44;99849.72;;;21.89;37.58
56671;BME280;42545;50.054;8.306;2023-06-14T10:26:19;99850.44;;;21.95;38.15
56671;BME280;42545;50.054;8.306;2023-06-14T10:28:55;99852.03;;;22.00;37.54
56671;BME280;42545;50.054;8.306;2023-06-14T10:31:39;99844.66;;;22.07;37.90
56671;BME280;42545;50.054;8.306;2023-06-14T10:34:06;99845.81;;;22.25;37.47
56671;BME280;42545;50.054;8.306;2023-06-14T10:36:33;99854.47;;;22.35;37.97
56671;BME280;42545;50.054;8.306;2023-06-14T10:39:05;99842.84;;;22.34;37.57
56671;BME280;42545;50.054;8.306;2023-06-14T10:41:35;99845.59;;;22.33;38.54
56671;BME280;42545;50.054;8.306;2023-06-14T10:44:31;99848.44;;;22.28;37.84
56671;BME280;42545;50.054;8.306;2023-06-14T10:47:00;99860.00;;;22.30;37.28
56671;BME280;42545;50.054;8.306;2023-06-14T10:49:39;99859.91;;;22.33;37.35
56671;BME280;42545;50.054;8.306;2023-06-14T10:52:09;99848.06;;;22.39;37.46
56671;BME280;42545;50.054;8.306;2023-06-14T10:55:06;99855.44;;;22.32;37.50
56671;BME280;42545;50.054;8.306;2023-06-14T10:57:37;99854.44;;;22.36;37.87
56671;BME280;42545;50.054;8.306;2023-06-14T11:00:05;99857.25;;;22.32;37.88
56671;BME280;42545;50.054;8.306;2023-06-14T11:02:51;99863.50;;;22.32;38.05
56671;BME280;42545;50.054;8.306;2023-06-14T11:05:24;99872.19;;;22.40;37.06
56671;BME280;42545;50.054;8.306;2023-06-14T11:08:05;99860.69;;;22.37;36.85
56671;BME280;42545;50.054;8.306;2023-06-14T11:10:40;99860.72;;;22.35;37.61
56671;BME280;42545;50.054;8.306;2023-06-14T11:13:08;99858.81;;;22.39;37.85
56671;BME280;42545;50.054;8.306;2023-06-14T11:15:37;99857.94;;;22.38;36.79
56671;BME280;42545;50.054;8.306;2023-06-14T11:18:08;99854.81;;;22.51;37.11
56671;BME280;42545;50.054;8.306;2023-06-14T11:23:04;99852.94;;;22.53;36.27
56671;BME280;42545;50.054;8.306;2023-06-14T11:25:30;99852.88;;;22.54;35.69
56671;BME280;42545;50.054;8.306;2023-06-14T11:27:57;99847.63;;;22.51;36.42
56671;BME280;42545;50.054;8.306;2023-06-14T11:30:25;99845.66;;;22.56;36.43
56671;BME280;42545;50.054;8.306;2023-06-14T11:32:53;99849.22;;;22.57;36.21
56671;BME280;42545;50.054;8.306;2023-06-14T11:35:23;99859.53;;;22.69;36.73
56671;BME280;42545;50.054;8.306;2023-06-14T11:37:52;99868.34;;;22.73;36.26
56671;BME280;42545;50.054;8.306;2023-06-14T11:40:23;99856.16;;;22.62;36.52
56671;BME280;42545;50.054;8.306;2023-06-14T11:42:50;99846.19;;;22.66;37.21
56671;BME280;42545;50.054;8.306;2023-06-14T11:45:18;99847.66;;;22.75;36.46
56671;BME280;42545;50.054;8.306;2023-06-14T11:47:44;99847.25;;;22.86;36.39
56671;BME280;42545;50.054;8.306;2023-06-14T11:50:11;99849.81;;;22.89;36.82
56671;BME280;42545;50.054;8.306;2023-06-14T11:52:39;99844.38;;;22.90;37.07
56671;BME280;42545;50.054;8.306;2023-06-14T11:55:06;99845.25;;;22.91;37.20
56671;BME280;42545;50.054;8.306;2023-06-14T11:57:34;99841.16;;;22.80;37.58
56671;BME280;42545;50.054;8.306;2023-06-14T12:00:03;99838.28;;;22.85;36.84
56671;BME280;42545;50.054;8.306;2023-06-14T12:02:32;99829.53;;;22.80;36.71
56671;BME280;42545;50.054;8.306;2023-06-14T12:05:04;99831.69;;;22.94;37.17
56671;BME280;42545;50.054;8.306;2023-06-14T12:07:33;99832.72;;;23.15;36.97
56671;BME280;42545;50.054;8.306;2023-06-14T12:10:08;99840.78;;;23.15;36.64
56671;BME280;42545;50.054;8.306;2023-06-14T12:12:37;99842.16;;;23.01;36.78
56671;BME280;42545;50.054;8.306;2023-06-14T12:15:04;99844.28;;;22.93;37.25
56671;BME280;42545;50.054;8.306;2023-06-14T12:17:32;99847.31;;;22.84;37.14
56671;BME280;42545;50.054;8.306;2023-06-14T12:19:59;99838.88;;;22.70;37.13
56671;BME280;42545;50.054;8.306;2023-06-14T12:22:33;99842.19;;;22.53;37.15
56671;BME280;42545;50.054;8.306;2023-06-14T12:25:00;99829.78;;;22.49;37.77
56671;BME280;42545;50.054;8.306;2023-06-14T12:27:30;99837.84;;;22.49;37.85
56671;BME280;42545;50.054;8.306;2023-06-14T12:30:01;99835.81;;;22.55;37.56
56671;BME280;42545;50.054;8.306;2023-06-14T12:32:28;99823.59;;;22.70;37.79
56671;BME280;42545;50.054;8.306;2023-06-14T12:34:55;99839.25;;;22.84;38.50
56671;BME280;42545;50.054;8.306;2023-06-14T12:37:22;99839.81;;;22.92;37.70
56671;BME280;42545;50.054;8.306;2023-06-14T12:39:48;99838.03;;;22.93;37.81
56671;BME280;42545;50.054;8.306;2023-06-14T12:42:16;99838.09;;;22.91;37.32
56671;BME280;42545;50.054;8.306;2023-06-14T12:44:44;99834.63;;;22.88;37.04
56671;BME280;42545;50.054;8.306;2023-06-14T12:47:11;99838.94;;;22.92;37.52
56671;BME280;42545;50.054;8.306;2023-06-14T12:49:39;99838.53;;;23.04;37.01
56671;BME280;42545;50.054;8.306;2023-06-14T12:52:07;99843.53;;;23.13;37.43
56671;BME280;42545;50.054;8.306;2023-06-14T12:54:34;99833.75;;;23.11;36.91
56671;BME280;42545;50.054;8.306;2023-06-14T12:57:01;99834.66;;;23.11;36.91
56671;BME280;42545;50.054;8.306;2023-06-14T12:59:28;99839.09;;;23.12;37.00
56671;BME280;42545;50.054;8.306;2023-06-14T13:02:10;99843.91;;;23.02;36.83
56671;BME280;42545;50.054;8.306;2023-06-14T13:04:37;99841.88;;;22.86;37.15
56671;BME280;42545;50.054;8.306;2023-06-14T13:07:07;99831.81;;;22.67;37.69
56671;BME280;42545;50.054;8.306;2023-06-14T13:09:35;99851.59;;;22.64;37.50